sensor_id;sensor_type;location;lat;lon;timestamp;temperature;humidity
6536;DHT22;34330;52.08032700;5.40923460;2024-02-26T00:02:23;9.20;93.80
6536;DHT22;34330;52.08032700;5.40923460;2024-02-26T00:04:51;9.30;93.80
6536;DHT22;34330;52.08032700;5.40923460;2024-02-26T00:07:19;9.20;93.80
6536;DHT22;34330;52.08032700;5.40923460;2024-02-26T00:09:47;9.20;93.70
6536;DHT22;34330;52.08032700;5.40923460;2024-02-26T00:12:15;9.20;93.80
6536;DHT22;34330;52.08032700;5.40923460;2024-02-26T00:14:43;9.20;93.80
6536;DHT22;34330;52.08032700;5.40923460;2024-02-26T00:17:13;9.20;93.80
6536;DHT22;34330;52.08032700;5.40923460;2024-02-26T00:19:43;9.20;93.80
6536;DHT22;34330;52.08032700;5.40923460;2024-02-26T00:22:11;9.20;93.80
6536;DHT22;34330;52.08032700;5.40923460;2024-02-26T00:24:40;9.20;93.80
6536;DHT22;34330;52.08032700;5.40923460;2024-02-26T00:27:08;9.10;93.80
6536;DHT22;34330;52.08032700;5.40923460;2024-02-26T00:29:36;9.10;93.90
6536;DHT22;34330;52.08032700;5.40923460;2024-02-26T00:32:04;9.10;93.90
6536;DHT22;34330;52.08032700;5.40923460;2024-02-26T00:34:32;9.10;94.00
6536;DHT22;34330;52.08032700;5.40923460;2024-02-26T00:37:02;9.30;94.30
6536;DHT22;34330;52.08032700;5.40923460;2024-02-26T00:39:30;9.10;94.00
6536;DHT22;34330;52.08032700;5.40923460;2024-02-26T00:41:58;9.10;94.00
6536;DHT22;34330;52.08032700;5.40923460;2024-02-26T00:44:26;9.00;94.00
6536;DHT22;34330;52.08032700;5.40923460;2024-02-26T00:46:54;9.00;93.90
6536;DHT22;34330;52.08032700;5.40923460;2024-02-26T00:49:24;9.00;94.00
6536;DHT22;34330;52.08032700;5.40923460;2024-02-26T00:51:52;9.00;93.90
6536;DHT22;34330;52.08032700;5.40923460;2024-02-26T00:54:21;9.00;94.00
6536;DHT22;34330;52.08032700;5.40923460;2024-02-26T00:56:50;9.30;94.20
6536;DHT22;34330;52.08032700;5.40923460;2024-02-26T00:59:17;9.00;94.10
6536;DHT22;34330;52.08032700;5.40923460;2024-02-26T01:01:46;8.90;94.00
6536;DHT22;34330;52.08032700;5.40923460;2024-02-26T01:04:14;8.90;94.10
6536;DHT22;34330;52.08032700;5.40923460;2024-02-26T01:06:42;8.90;94.10
6536;DHT22;34330;52.08032700;5.40923460;2024-02-26T01:09:10;9.00;94.20
6536;DHT22;34330;52.08032700;5.40923460;2024-02-26T01:11:39;8.90;94.20
6536;DHT22;34330;52.08032700;5.40923460;2024-02-26T01:14:07;8.90;94.30
6536;DHT22;34330;52.08032700;5.40923460;2024-02-26T01:16:35;8.90;94.30
6536;DHT22;34330;52.08032700;5.40923460;2024-02-26T01:19:03;8.90;94.30
6536;DHT22;34330;52.08032700;5.40923460;2024-02-26T01:21:31;8.90;94.30
6536;DHT22;34330;52.08032700;5.40923460;2024-02-26T01:23:59;8.90;94.30
6536;DHT22;34330;52.08032700;5.40923460;2024-02-26T01:26:27;8.90;94.30
6536;DHT22;34330;52.08032700;5.40923460;2024-02-26T01:28:56;8.90;94.30
6536;DHT22;34330;52.08032700;5.40923460;2024-02-26T01:31:23;8.90;94.20
6536;DHT22;34330;52.08032700;5.40923460;2024-02-26T01:33:51;8.90;94.30
6536;DHT22;34330;52.08032700;5.40923460;2024-02-26T01:36:20;8.90;94.30
6536;DHT22;34330;52.08032700;5.40923460;2024-02-26T01:38:48;8.90;94.30
6536;DHT22;34330;52.08032700;5.40923460;2024-02-26T01:41:16;8.90;94.20
6536;DHT22;34330;52.08032700;5.40923460;2024-02-26T01:43:44;9.50;94.50
6536;DHT22;34330;52.08032700;5.40923460;2024-02-26T01:46:14;8.90;94.20
6536;DHT22;34330;52.08032700;5.40923460;2024-02-26T01:48:42;9.00;94.20
6536;DHT22;34330;52.08032700;5.40923460;2024-02-26T01:51:12;8.90;94.10
6536;DHT22;34330;52.08032700;5.40923460;2024-02-26T01:53:41;8.90;94.10
6536;DHT22;34330;52.08032700;5.40923460;2024-02-26T01:56:10;8.90;94.10
6536;DHT22;34330;52.08032700;5.40923460;2024-02-26T01:58:39;9.00;94.20
6536;DHT22;34330;52.08032700;5.40923460;2024-02-26T02:01:07;8.90;94.10
6536;DHT22;34330;52.08032700;5.40923460;2024-02-26T02:03:38;8.90;94.00
6536;DHT22;34330;52.08032700;5.40923460;2024-02-26T02:06:06;8.90;94.00
6536;DHT22;34330;52.08032700;5.40923460;2024-02-26T02:08:35;8.90;94.00
6536;DHT22;34330;52.08032700;5.40923460;2024-02-26T02:11:03;8.90;94.00
6536;DHT22;34330;52.08032700;5.40923460;2024-02-26T02:13:32;8.90;94.00
6536;DHT22;34330;52.08032700;5.40923460;2024-02-26T02:16:00;8.90;94.00
6536;DHT22;34330;52.08032700;5.40923460;2024-02-26T02:18:28;8.90;93.90
6536;DHT22;34330;52.08032700;5.40923460;2024-02-26T02:21:00;8.90;94.00
6536;DHT22;34330;52.08032700;5.40923460;2024-02-26T02:23:28;8.90;94.00
6536;DHT22;34330;52.08032700;5.40923460;2024-02-26T02:25:58;9.30;94.10
6536;DHT22;34330;52.08032700;5.40923460;2024-02-26T02:28:27;8.90;94.00
6536;DHT22;34330;52.08032700;5.40923460;2024-02-26T02:30:56;9.00;94.00
6536;DHT22;34330;52.08032700;5.40923460;2024-02-26T02:33:27;8.90;93.90
6536;DHT22;34330;52.08032700;5.40923460;2024-02-26T02:35:57;8.90;93.90
6536;DHT22;34330;52.08032700;5.40923460;2024-02-26T02:38:25;9.20;94.10
6536;DHT22;34330;52.08032700;5.40923460;2024-02-26T02:40:56;9.30;94.10
6536;DHT22;34330;52.08032700;5.40923460;2024-02-26T02:43:24;9.00;93.90
6536;DHT22;34330;52.08032700;5.40923460;2024-02-26T02:45:52;8.90;93.80
6536;DHT22;34330;52.08032700;5.40923460;2024-02-26T02:48:20;9.00;93.90
6536;DHT22;34330;52.08032700;5.40923460;2024-02-26T02:50:49;8.90;93.80
6536;DHT22;34330;52.08032700;5.40923460;2024-02-26T02:53:18;8.90;93.90
6536;DHT22;34330;52.08032700;5.40923460;2024-02-26T02:55:46;11.30;94.40
6536;DHT22;34330;52.08032700;5.40923460;2024-02-26T02:58:14;8.90;93.80
6536;DHT22;34330;52.08032700;5.40923460;2024-02-26T03:00:42;8.90;93.80
6536;DHT22;34330;52.08032700;5.40923460;2024-02-26T03:03:10;8.90;93.80
6536;DHT22;34330;52.08032700;5.40923460;2024-02-26T03:05:38;8.90;93.90
6536;DHT22;34330;52.08032700;5.40923460;2024-02-26T03:08:06;8.90;93.90
6536;DHT22;34330;52.08032700;5.40923460;2024-02-26T03:10:35;8.90;93.80
6536;DHT22;34330;52.08032700;5.40923460;2024-02-26T03:13:04;8.90;93.80
6536;DHT22;34330;52.08032700;5.40923460;2024-02-26T03:15:32;9.20;94.00
6536;DHT22;34330;52.08032700;5.40923460;2024-02-26T03:18:00;8.90;93.90
6536;DHT22;34330;52.08032700;5.40923460;2024-02-26T03:20:28;8.90;93.90
6536;DHT22;34330;52.08032700;5.40923460;2024-02-26T03:22:56;8.90;93.80
6536;DHT22;34330;52.08032700;5.40923460;2024-02-26T03:25:24;8.90;94.00
6536;DHT22;34330;52.08032700;5.40923460;2024-02-26T03:27:53;8.90;93.90
6536;DHT22;34330;52.08032700;5.40923460;2024-02-26T03:30:21;8.90;93.90
6536;DHT22;34330;52.08032700;5.40923460;2024-02-26T03:32:49;8.90;93.90
6536;DHT22;34330;52.08032700;5.40923460;2024-02-26T03:35:17;8.80;93.90
6536;DHT22;34330;52.08032700;5.40923460;2024-02-26T03:37:46;8.80;93.90
6536;DHT22;34330;52.08032700;5.40923460;2024-02-26T03:40:14;8.90;94.00
6536;DHT22;34330;52.08032700;5.40923460;2024-02-26T03:42:42;8.90;94.00
6536;DHT22;34330;52.08032700;5.40923460;2024-02-26T03:45:11;8.80;94.00
6536;DHT22;34330;52.08032700;5.40923460;2024-02-26T03:47:39;8.80;94.00
6536;DHT22;34330;52.08032700;5.40923460;2024-02-26T03:50:08;8.80;94.00
6536;DHT22;34330;52.08032700;5.40923460;2024-02-26T03:52:36;8.80;94.00
6536;DHT22;34330;52.08032700;5.40923460;2024-02-26T03:55:04;8.80;94.00
6536;DHT22;34330;52.08032700;5.40923460;2024-02-26T03:57:32;8.80;94.10
6536;DHT22;34330;52.08032700;5.40923460;2024-02-26T04:00:01;8.80;94.10
6536;DHT22;34330;52.08032700;5.40923460;2024-02-26T04:02:31;8.80;94.10
6536;DHT22;34330;52.08032700;5.40923460;2024-02-26T04:04:59;8.80;94.10
6536;DHT22;34330;52.08032700;5.40923460;2024-02-26T04:07:28;8.80;94.10
6536;DHT22;34330;52.08032700;5.40923460;2024-02-26T04:09:56;8.80;94.10
6536;DHT22;34330;52.08032700;5.40923460;2024-02-26T04:12:24;8.80;94.20
6536;DHT22;34330;52.08032700;5.40923460;2024-02-26T04:14:52;8.80;94.40
6536;DHT22;34330;52.08032700;5.40923460;2024-02-26T04:17:20;8.80;94.10
6536;DHT22;34330;52.08032700;5.40923460;2024-02-26T04:19:49;8.70;94.10
6536;DHT22;34330;52.08032700;5.40923460;2024-02-26T04:22:17;8.70;94.10
6536;DHT22;34330;52.08032700;5.40923460;2024-02-26T04:24:45;8.80;94.10
6536;DHT22;34330;52.08032700;5.40923460;2024-02-26T04:27:13;8.80;94.20
6536;DHT22;34330;52.08032700;5.40923460;2024-02-26T04:29:40;8.70;94.20
6536;DHT22;34330;52.08032700;5.40923460;2024-02-26T04:32:08;8.70;94.10
6536;DHT22;34330;52.08032700;5.40923460;2024-02-26T04:34:36;8.70;94.20
6536;DHT22;34330;52.08032700;5.40923460;2024-02-26T04:37:06;8.70;94.20
6536;DHT22;34330;52.08032700;5.40923460;2024-02-26T04:39:34;8.70;94.10
6536;DHT22;34330;52.08032700;5.40923460;2024-02-26T04:42:02;8.70;94.10
6536;DHT22;34330;52.08032700;5.40923460;2024-02-26T04:44:31;8.70;94.20
6536;DHT22;34330;52.08032700;5.40923460;2024-02-26T04:46:59;8.70;94.20
6536;DHT22;34330;52.08032700;5.40923460;2024-02-26T04:49:28;8.70;94.20
6536;DHT22;34330;52.08032700;5.40923460;2024-02-26T04:51:56;8.70;94.20
6536;DHT22;34330;52.08032700;5.40923460;2024-02-26T04:54:26;8.70;94.20
6536;DHT22;34330;52.08032700;5.40923460;2024-02-26T04:56:53;8.70;94.30
6536;DHT22;34330;52.08032700;5.40923460;2024-02-26T04:59:22;8.70;94.30
6536;DHT22;34330;52.08032700;5.40923460;2024-02-26T05:01:50;8.70;94.30
6536;DHT22;34330;52.08032700;5.40923460;2024-02-26T05:04:19;8.70;94.30
6536;DHT22;34330;52.08032700;5.40923460;2024-02-26T05:06:47;8.70;94.40
6536;DHT22;34330;52.08032700;5.40923460;2024-02-26T05:09:15;8.70;94.40
6536;DHT22;34330;52.08032700;5.40923460;2024-02-26T05:11:46;8.70;94.40
6536;DHT22;34330;52.08032700;5.40923460;2024-02-26T05:14:14;9.50;94.70
6536;DHT22;34330;52.08032700;5.40923460;2024-02-26T05:16:42;8.70;94.40
6536;DHT22;34330;52.08032700;5.40923460;2024-02-26T05:19:10;8.70;94.40
6536;DHT22;34330;52.08032700;5.40923460;2024-02-26T05:21:39;8.70;94.40
6536;DHT22;34330;52.08032700;5.40923460;2024-02-26T05:24:07;8.70;94.40
6536;DHT22;34330;52.08032700;5.40923460;2024-02-26T05:26:35;8.70;94.40
6536;DHT22;34330;52.08032700;5.40923460;2024-02-26T05:29:05;8.70;94.40
6536;DHT22;34330;52.08032700;5.40923460;2024-02-26T05:31:32;8.70;94.40
6536;DHT22;34330;52.08032700;5.40923460;2024-02-26T05:34:00;8.70;94.30
6536;DHT22;34330;52.08032700;5.40923460;2024-02-26T05:36:29;8.70;94.40
6536;DHT22;34330;52.08032700;5.40923460;2024-02-26T05:39:00;8.70;94.40
6536;DHT22;34330;52.08032700;5.40923460;2024-02-26T05:41:28;8.70;94.40
6536;DHT22;34330;52.08032700;5.40923460;2024-02-26T05:43:56;8.70;94.40
6536;DHT22;34330;52.08032700;5.40923460;2024-02-26T05:46:26;8.70;94.40
6536;DHT22;34330;52.08032700;5.40923460;2024-02-26T05:48:54;8.80;94.40
6536;DHT22;34330;52.08032700;5.40923460;2024-02-26T05:51:23;8.70;94.30
6536;DHT22;34330;52.08032700;5.40923460;2024-02-26T05:53:51;8.70;94.30
6536;DHT22;34330;52.08032700;5.40923460;2024-02-26T05:56:22;8.80;94.40
6536;DHT22;34330;52.08032700;5.40923460;2024-02-26T05:58:50;8.80;94.40
6536;DHT22;34330;52.08032700;5.40923460;2024-02-26T06:01:20;8.70;94.40
6536;DHT22;34330;52.08032700;5.40923460;2024-02-26T06:03:50;8.70;94.70
6536;DHT22;34330;52.08032700;5.40923460;2024-02-26T06:06:17;8.70;94.40
6536;DHT22;34330;52.08032700;5.40923460;2024-02-26T06:08:46;8.70;94.30
6536;DHT22;34330;52.08032700;5.40923460;2024-02-26T06:11:14;8.70;94.40
6536;DHT22;34330;52.08032700;5.40923460;2024-02-26T06:13:42;8.70;94.40
6536;DHT22;34330;52.08032700;5.40923460;2024-02-26T06:16:10;8.70;94.70
6536;DHT22;34330;52.08032700;5.40923460;2024-02-26T06:18:37;8.70;94.40
6536;DHT22;34330;52.08032700;5.40923460;2024-02-26T06:21:10;8.70;94.40
6536;DHT22;34330;52.08032700;5.40923460;2024-02-26T06:23:38;8.70;94.40
6536;DHT22;34330;52.08032700;5.40923460;2024-02-26T06:26:06;8.70;94.40
6536;DHT22;34330;52.08032700;5.40923460;2024-02-26T06:28:34;8.80;94.50
6536;DHT22;34330;52.08032700;5.40923460;2024-02-26T06:31:03;8.70;94.50
6536;DHT22;34330;52.08032700;5.40923460;2024-02-26T06:33:31;8.70;94.40
6536;DHT22;34330;52.08032700;5.40923460;2024-02-26T06:35:59;9.10;94.60
6536;DHT22;34330;52.08032700;5.40923460;2024-02-26T06:38:28;8.70;94.40
6536;DHT22;34330;52.08032700;5.40923460;2024-02-26T06:40:56;8.70;94.40
6536;DHT22;34330;52.08032700;5.40923460;2024-02-26T06:43:25;9.20;94.70
6536;DHT22;34330;52.08032700;5.40923460;2024-02-26T06:45:53;8.70;94.50
6536;DHT22;34330;52.08032700;5.40923460;2024-02-26T06:48:22;8.70;94.50
6536;DHT22;34330;52.08032700;5.40923460;2024-02-26T06:50:50;8.70;94.60
6536;DHT22;34330;52.08032700;5.40923460;2024-02-26T06:53:20;8.70;94.50
6536;DHT22;34330;52.08032700;5.40923460;2024-02-26T06:55:49;8.70;94.60
6536;DHT22;34330;52.08032700;5.40923460;2024-02-26T06:58:17;8.70;94.60
6536;DHT22;34330;52.08032700;5.40923460;2024-02-26T07:00:45;8.70;94.60
6536;DHT22;34330;52.08032700;5.40923460;2024-02-26T07:03:14;8.70;94.60
6536;DHT22;34330;52.08032700;5.40923460;2024-02-26T07:05:42;10.40;94.80
6536;DHT22;34330;52.08032700;5.40923460;2024-02-26T07:08:12;8.70;94.70
6536;DHT22;34330;52.08032700;5.40923460;2024-02-26T07:10:40;8.70;94.70
6536;DHT22;34330;52.08032700;5.40923460;2024-02-26T07:13:09;8.70;94.70
6536;DHT22;34330;52.08032700;5.40923460;2024-02-26T07:15:38;8.70;94.70
6536;DHT22;34330;52.08032700;5.40923460;2024-02-26T07:18:06;8.80;94.70
6536;DHT22;34330;52.08032700;5.40923460;2024-02-26T07:20:34;8.80;94.70
6536;DHT22;34330;52.08032700;5.40923460;2024-02-26T07:23:02;8.70;94.70
6536;DHT22;34330;52.08032700;5.40923460;2024-02-26T07:25:30;8.80;94.70
6536;DHT22;34330;52.08032700;5.40923460;2024-02-26T07:27:59;8.80;94.70
6536;DHT22;34330;52.08032700;5.40923460;2024-02-26T07:30:28;9.10;94.80
6536;DHT22;34330;52.08032700;5.40923460;2024-02-26T07:32:57;8.90;94.70
6536;DHT22;34330;52.08032700;5.40923460;2024-02-26T07:35:25;8.80;94.50
6536;DHT22;34330;52.08032700;5.40923460;2024-02-26T07:37:54;8.80;94.70
6536;DHT22;34330;52.08032700;5.40923460;2024-02-26T07:40:25;9.40;94.80
6536;DHT22;34330;52.08032700;5.40923460;2024-02-26T07:42:53;8.90;94.80
6536;DHT22;34330;52.08032700;5.40923460;2024-02-26T07:45:21;8.80;94.90
6536;DHT22;34330;52.08032700;5.40923460;2024-02-26T07:47:50;8.90;94.90
6536;DHT22;34330;52.08032700;5.40923460;2024-02-26T07:50:20;8.90;94.90
6536;DHT22;34330;52.08032700;5.40923460;2024-02-26T07:52:48;8.90;95.00
6536;DHT22;34330;52.08032700;5.40923460;2024-02-26T07:55:17;8.90;95.00
6536;DHT22;34330;52.08032700;5.40923460;2024-02-26T07:57:46;8.90;95.10
6536;DHT22;34330;52.08032700;5.40923460;2024-02-26T08:00:14;9.10;95.20
6536;DHT22;34330;52.08032700;5.40923460;2024-02-26T08:02:44;8.90;95.20
6536;DHT22;34330;52.08032700;5.40923460;2024-02-26T08:05:13;8.90;95.20
6536;DHT22;34330;52.08032700;5.40923460;2024-02-26T08:07:41;8.90;95.20
6536;DHT22;34330;52.08032700;5.40923460;2024-02-26T08:10:09;8.90;95.30
6536;DHT22;34330;52.08032700;5.40923460;2024-02-26T08:12:37;8.90;95.30
6536;DHT22;34330;52.08032700;5.40923460;2024-02-26T08:15:07;8.90;95.30
6536;DHT22;34330;52.08032700;5.40923460;2024-02-26T08:17:35;8.90;95.40
6536;DHT22;34330;52.08032700;5.40923460;2024-02-26T08:20:04;8.90;95.40
6536;DHT22;34330;52.08032700;5.40923460;2024-02-26T08:22:34;9.00;95.50
6536;DHT22;34330;52.08032700;5.40923460;2024-02-26T08:25:02;9.00;95.40
6536;DHT22;34330;52.08032700;5.40923460;2024-02-26T08:27:33;9.00;95.40
6536;DHT22;34330;52.08032700;5.40923460;2024-02-26T08:30:01;9.00;95.40
6536;DHT22;34330;52.08032700;5.40923460;2024-02-26T08:32:29;9.00;95.30
6536;DHT22;34330;52.08032700;5.40923460;2024-02-26T08:34:58;9.00;95.40
6536;DHT22;34330;52.08032700;5.40923460;2024-02-26T08:37:26;9.00;95.50
6536;DHT22;34330;52.08032700;5.40923460;2024-02-26T08:39:56;9.00;95.50
6536;DHT22;34330;52.08032700;5.40923460;2024-02-26T08:42:31;9.00;95.40
6536;DHT22;34330;52.08032700;5.40923460;2024-02-26T08:45:01;9.00;95.50
6536;DHT22;34330;52.08032700;5.40923460;2024-02-26T08:47:30;9.00;95.50
6536;DHT22;34330;52.08032700;5.40923460;2024-02-26T08:49:58;9.00;95.40
6536;DHT22;34330;52.08032700;5.40923460;2024-02-26T08:52:25;9.50;95.60
6536;DHT22;34330;52.08032700;5.40923460;2024-02-26T08:54:55;9.00;95.40
6536;DHT22;34330;52.08032700;5.40923460;2024-02-26T08:57:23;9.00;95.20
6536;DHT22;34330;52.08032700;5.40923460;2024-02-26T08:59:53;9.00;95.30
6536;DHT22;34330;52.08032700;5.40923460;2024-02-26T09:02:21;9.20;95.40
6536;DHT22;34330;52.08032700;5.40923460;2024-02-26T09:04:49;9.10;95.30
6536;DHT22;34330;52.08032700;5.40923460;2024-02-26T09:07:18;9.10;95.30
6536;DHT22;34330;52.08032700;5.40923460;2024-02-26T09:09:46;9.10;95.20
6536;DHT22;34330;52.08032700;5.40923460;2024-02-26T09:12:15;9.10;95.30
6536;DHT22;34330;52.08032700;5.40923460;2024-02-26T09:14:45;9.20;95.30
6536;DHT22;34330;52.08032700;5.40923460;2024-02-26T09:17:13;9.10;95.30
6536;DHT22;34330;52.08032700;5.40923460;2024-02-26T09:19:41;9.10;95.30
6536;DHT22;34330;52.08032700;5.40923460;2024-02-26T09:22:10;9.10;95.30
6536;DHT22;34330;52.08032700;5.40923460;2024-02-26T09:24:41;9.10;95.30
6536;DHT22;34330;52.08032700;5.40923460;2024-02-26T09:27:09;9.10;95.30
6536;DHT22;34330;52.08032700;5.40923460;2024-02-26T09:29:38;9.00;95.40
6536;DHT22;34330;52.08032700;5.40923460;2024-02-26T09:32:07;9.00;95.40
6536;DHT22;34330;52.08032700;5.40923460;2024-02-26T09:34:35;9.00;95.40
6536;DHT22;34330;52.08032700;5.40923460;2024-02-26T09:37:03;9.00;95.50
6536;DHT22;34330;52.08032700;5.40923460;2024-02-26T09:39:46;9.10;95.60
6536;DHT22;34330;52.08032700;5.40923460;2024-02-26T09:42:19;9.10;95.60
6536;DHT22;34330;52.08032700;5.40923460;2024-02-26T09:44:51;9.10;95.60
6536;DHT22;34330;52.08032700;5.40923460;2024-02-26T09:47:22;9.10;95.60
6536;DHT22;34330;52.08032700;5.40923460;2024-02-26T09:49:52;9.10;95.70
6536;DHT22;34330;52.08032700;5.40923460;2024-02-26T09:52:21;9.10;95.70
6536;DHT22;34330;52.08032700;5.40923460;2024-02-26T09:54:51;9.10;95.70
6536;DHT22;34330;52.08032700;5.40923460;2024-02-26T09:57:19;9.10;95.70
6536;DHT22;34330;52.08032700;5.40923460;2024-02-26T09:59:54;8.80;95.70
6536;DHT22;34330;52.08032700;5.40923460;2024-02-26T10:02:25;9.50;96.10
6536;DHT22;34330;52.08032700;5.40923460;2024-02-26T10:04:55;9.40;96.00
6536;DHT22;34330;52.08032700;5.40923460;2024-02-26T10:07:25;9.50;96.00
6536;DHT22;34330;52.08032700;5.40923460;2024-02-26T10:09:53;9.10;95.90
6536;DHT22;34330;52.08032700;5.40923460;2024-02-26T10:12:21;9.10;96.00
6536;DHT22;34330;52.08032700;5.40923460;2024-02-26T10:14:51;9.10;96.00
6536;DHT22;34330;52.08032700;5.40923460;2024-02-26T10:17:20;9.10;96.00
6536;DHT22;34330;52.08032700;5.40923460;2024-02-26T10:19:48;8.90;96.00
6536;DHT22;34330;52.08032700;5.40923460;2024-02-26T10:22:18;9.10;96.20
6536;DHT22;34330;52.08032700;5.40923460;2024-02-26T10:24:47;9.10;96.10
6536;DHT22;34330;52.08032700;5.40923460;2024-02-26T10:27:15;9.10;96.20
6536;DHT22;34330;52.08032700;5.40923460;2024-02-26T10:29:43;9.10;96.20
6536;DHT22;34330;52.08032700;5.40923460;2024-02-26T10:32:15;9.10;96.30
6536;DHT22;34330;52.08032700;5.40923460;2024-02-26T10:34:44;9.10;96.40
6536;DHT22;34330;52.08032700;5.40923460;2024-02-26T10:37:12;9.10;96.40
6536;DHT22;34330;52.08032700;5.40923460;2024-02-26T10:39:46;9.10;96.50
6536;DHT22;34330;52.08032700;5.40923460;2024-02-26T10:42:14;9.10;96.70
6536;DHT22;34330;52.08032700;5.40923460;2024-02-26T10:44:45;9.30;96.70
6536;DHT22;34330;52.08032700;5.40923460;2024-02-26T10:47:16;9.20;96.70
6536;DHT22;34330;52.08032700;5.40923460;2024-02-26T10:49:45;9.20;96.70
6536;DHT22;34330;52.08032700;5.40923460;2024-02-26T10:52:15;9.20;96.70
6536;DHT22;34330;52.08032700;5.40923460;2024-02-26T10:54:45;9.30;96.80
6536;DHT22;34330;52.08032700;5.40923460;2024-02-26T10:57:21;9.20;96.80
6536;DHT22;34330;52.08032700;5.40923460;2024-02-26T10:59:50;10.30;96.60
6536;DHT22;34330;52.08032700;5.40923460;2024-02-26T11:02:20;9.30;96.80
6536;DHT22;34330;52.08032700;5.40923460;2024-02-26T11:04:49;9.30;96.90
6536;DHT22;34330;52.08032700;5.40923460;2024-02-26T11:07:21;9.30;96.90
6536;DHT22;34330;52.08032700;5.40923460;2024-02-26T11:09:51;9.30;96.70
6536;DHT22;34330;52.08032700;5.40923460;2024-02-26T11:12:20;9.50;96.90
6536;DHT22;34330;52.08032700;5.40923460;2024-02-26T11:14:49;9.40;96.80
6536;DHT22;34330;52.08032700;5.40923460;2024-02-26T11:17:25;9.40;96.80
6536;DHT22;34330;52.08032700;5.40923460;2024-02-26T11:19:56;9.40;96.90
6536;DHT22;34330;52.08032700;5.40923460;2024-02-26T11:22:24;9.40;96.80
6536;DHT22;34330;52.08032700;5.40923460;2024-02-26T11:24:54;9.40;96.80
6536;DHT22;34330;52.08032700;5.40923460;2024-02-26T11:27:27;9.40;96.80
6536;DHT22;34330;52.08032700;5.40923460;2024-02-26T11:30:00;9.60;96.80
6536;DHT22;34330;52.08032700;5.40923460;2024-02-26T11:32:30;9.50;96.70
6536;DHT22;34330;52.08032700;5.40923460;2024-02-26T11:34:58;9.50;96.70
6536;DHT22;34330;52.08032700;5.40923460;2024-02-26T11:37:27;9.50;97.00
6536;DHT22;34330;52.08032700;5.40923460;2024-02-26T11:39:58;9.50;96.60
6536;DHT22;34330;52.08032700;5.40923460;2024-02-26T11:42:26;9.50;96.50
6536;DHT22;34330;52.08032700;5.40923460;2024-02-26T11:44:58;9.50;96.60
6536;DHT22;34330;52.08032700;5.40923460;2024-02-26T11:47:27;9.80;96.70
6536;DHT22;34330;52.08032700;5.40923460;2024-02-26T11:50:00;9.50;96.70
6536;DHT22;34330;52.08032700;5.40923460;2024-02-26T11:53:19;9.50;96.60
6536;DHT22;34330;52.08032700;5.40923460;2024-02-26T11:55:47;9.50;96.90
6536;DHT22;34330;52.08032700;5.40923460;2024-02-26T11:58:17;9.50;96.80
6536;DHT22;34330;52.08032700;5.40923460;2024-02-26T12:00:47;9.50;96.90
6536;DHT22;34330;52.08032700;5.40923460;2024-02-26T12:03:15;9.90;97.00
6536;DHT22;34330;52.08032700;5.40923460;2024-02-26T12:05:45;9.50;96.90
6536;DHT22;34330;52.08032700;5.40923460;2024-02-26T12:08:14;9.50;96.90
6536;DHT22;34330;52.08032700;5.40923460;2024-02-26T12:10:45;9.50;96.80
6536;DHT22;34330;52.08032700;5.40923460;2024-02-26T12:13:20;9.60;97.00
6536;DHT22;34330;52.08032700;5.40923460;2024-02-26T12:15:57;9.50;96.90
6536;DHT22;34330;52.08032700;5.40923460;2024-02-26T12:18:26;9.50;96.80
6536;DHT22;34330;52.08032700;5.40923460;2024-02-26T12:21:02;9.60;97.00
6536;DHT22;34330;52.08032700;5.40923460;2024-02-26T12:23:34;9.50;96.90
6536;DHT22;34330;52.08032700;5.40923460;2024-02-26T12:26:02;9.60;97.00
6536;DHT22;34330;52.08032700;5.40923460;2024-02-26T12:28:34;9.60;97.00
6536;DHT22;34330;52.08032700;5.40923460;2024-02-26T12:31:02;9.60;97.00
6536;DHT22;34330;52.08032700;5.40923460;2024-02-26T12:33:32;9.60;97.00
6536;DHT22;34330;52.08032700;5.40923460;2024-02-26T12:36:01;9.60;96.90
6536;DHT22;34330;52.08032700;5.40923460;2024-02-26T12:38:29;9.60;97.00
6536;DHT22;34330;52.08032700;5.40923460;2024-02-26T12:40:58;9.60;97.00
6536;DHT22;34330;52.08032700;5.40923460;2024-02-26T12:43:26;9.70;97.00
6536;DHT22;34330;52.08032700;5.40923460;2024-02-26T12:45:54;9.70;97.00
6536;DHT22;34330;52.08032700;5.40923460;2024-02-26T12:48:22;9.70;97.00
6536;DHT22;34330;52.08032700;5.40923460;2024-02-26T12:50:50;9.70;96.90
6536;DHT22;34330;52.08032700;5.40923460;2024-02-26T12:53:20;9.70;96.80
6536;DHT22;34330;52.08032700;5.40923460;2024-02-26T12:55:49;9.70;96.80
6536;DHT22;34330;52.08032700;5.40923460;2024-02-26T12:58:17;9.70;96.80
6536;DHT22;34330;52.08032700;5.40923460;2024-02-26T13:00:47;9.70;96.80
6536;DHT22;34330;52.08032700;5.40923460;2024-02-26T13:03:16;9.80;96.90
6536;DHT22;34330;52.08032700;5.40923460;2024-02-26T13:05:44;9.80;96.90
6536;DHT22;34330;52.08032700;5.40923460;2024-02-26T13:08:17;9.80;96.70
6536;DHT22;34330;52.08032700;5.40923460;2024-02-26T13:10:47;9.80;96.70
6536;DHT22;34330;52.08032700;5.40923460;2024-02-26T13:13:22;9.80;96.70
6536;DHT22;34330;52.08032700;5.40923460;2024-02-26T13:15:50;9.80;96.50
6536;DHT22;34330;52.08032700;5.40923460;2024-02-26T13:18:28;9.60;96.40
6536;DHT22;34330;52.08032700;5.40923460;2024-02-26T13:21:11;9.80;96.50
6536;DHT22;34330;52.08032700;5.40923460;2024-02-26T13:23:39;9.80;96.60
6536;DHT22;34330;52.08032700;5.40923460;2024-02-26T13:26:11;9.80;96.50
6536;DHT22;34330;52.08032700;5.40923460;2024-02-26T13:28:40;9.80;96.50
6536;DHT22;34330;52.08032700;5.40923460;2024-02-26T13:31:08;9.80;96.50
6536;DHT22;34330;52.08032700;5.40923460;2024-02-26T13:33:36;9.80;96.50
6536;DHT22;34330;52.08032700;5.40923460;2024-02-26T13:36:05;9.80;96.40
6536;DHT22;34330;52.08032700;5.40923460;2024-02-26T13:38:33;9.80;96.50
6536;DHT22;34330;52.08032700;5.40923460;2024-02-26T13:41:01;10.00;96.00
6536;DHT22;34330;52.08032700;5.40923460;2024-02-26T13:43:30;9.80;96.30
6536;DHT22;34330;52.08032700;5.40923460;2024-02-26T13:45:58;9.80;96.30
6536;DHT22;34330;52.08032700;5.40923460;2024-02-26T13:48:26;9.80;96.30
6536;DHT22;34330;52.08032700;5.40923460;2024-02-26T13:50:54;9.80;96.30
6536;DHT22;34330;52.08032700;5.40923460;2024-02-26T13:53:22;9.80;96.30
6536;DHT22;34330;52.08032700;5.40923460;2024-02-26T13:55:50;9.90;96.40